sensor_id;sensor_type;location;lat;lon;timestamp;pressure;altitude;pressure_sealevel;temperature;humidity
4617;BME280;2321;42.704;23.384;2023-02-18T00:01:10;96225.84;;;2.60;nan
4617;BME280;2321;42.704;23.384;2023-02-18T00:03:38;96210.53;;;2.54;nan
4617;BME280;2321;42.704;23.384;2023-02-18T00:06:13;96214.72;;;2.56;nan
4617;BME280;2321;42.704;23.384;2023-02-18T00:08:42;96222.13;;;2.63;nan
4617;BME280;2321;42.704;23.384;2023-02-18T00:11:09;96216.41;;;2.57;nan
4617;BME280;2321;42.704;23.384;2023-02-18T00:13:36;96221.41;;;2.49;nan
4617;BME280;2321;42.704;23.384;2023-02-18T00:16:05;96211.88;;;2.48;nan
4617;BME280;2321;42.704;23.384;2023-02-18T00:18:34;96208.97;;;2.39;nan
4617;BME280;2321;42.704;23.384;2023-02-18T00:21:02;96204.72;;;2.38;nan
4617;BME280;2321;42.704;23.384;2023-02-18T00:23:30;96182.84;;;2.26;nan
4617;BME280;2321;42.704;23.384;2023-02-18T00:26:00;96192.03;;;2.32;nan
4617;BME280;2321;42.704;23.384;2023-02-18T00:28:28;96177.69;;;2.25;nan
4617;BME280;2321;42.704;23.384;2023-02-18T00:30:55;96164.47;;;2.26;nan
4617;BME280;2321;42.704;23.384;2023-02-18T00:33:21;96176.84;;;2.24;nan
4617;BME280;2321;42.704;23.384;2023-02-18T00:35:50;96170.91;;;2.22;nan
4617;BME280;2321;42.704;23.384;2023-02-18T00:38:17;96171.25;;;2.29;nan
4617;BME280;2321;42.704;23.384;2023-02-18T00:40:44;96164.47;;;2.26;nan
4617;BME280;2321;42.704;23.384;2023-02-18T00:43:11;96174.22;;;2.24;nan
4617;BME280;2321;42.704;23.384;2023-02-18T00:45:38;96165.88;;;2.19;nan
4617;BME280;2321;42.704;23.384;2023-02-18T00:48:04;96168.16;;;2.24;nan
4617;BME280;2321;42.704;23.384;2023-02-18T00:50:31;96158.72;;;2.10;nan
4617;BME280;2321;42.704;23.384;2023-02-18T00:53:00;96169.69;;;2.03;nan
4617;BME280;2321;42.704;23.384;2023-02-18T00:55:26;96163.13;;;2.09;nan
4617;BME280;2321;42.704;23.384;2023-02-18T00:57:53;96153.81;;;1.82;nan
4617;BME280;2321;42.704;23.384;2023-02-18T01:02:49;96163.84;;;1.88;nan
4617;BME280;2321;42.704;23.384;2023-02-18T01:05:19;96177.69;;;1.90;nan
4617;BME280;2321;42.704;23.384;2023-02-18T01:07:46;96172.81;;;1.85;nan
4617;BME280;2321;42.704;23.384;2023-02-18T01:10:16;96170.56;;;1.92;nan
4617;BME280;2321;42.704;23.384;2023-02-18T01:12:43;96173.75;;;1.84;nan
4617;BME280;2321;42.704;23.384;2023-02-18T01:15:11;96175.44;;;1.85;nan
4617;BME280;2321;42.704;23.384;2023-02-18T01:17:39;96155.50;;;1.83;nan
4617;BME280;2321;42.704;23.384;2023-02-18T01:20:08;96160.28;;;1.78;nan
4617;BME280;2321;42.704;23.384;2023-02-18T01:22:35;96162.06;;;1.77;nan
4617;BME280;2321;42.704;23.384;2023-02-18T01:25:03;96162.16;;;1.76;nan
4617;BME280;2321;42.704;23.384;2023-02-18T01:27:31;96165.03;;;1.72;nan
4617;BME280;2321;42.704;23.384;2023-02-18T01:29:58;96169.19;;;1.75;nan
4617;BME280;2321;42.704;23.384;2023-02-18T01:32:25;96153.22;;;1.78;nan
4617;BME280;2321;42.704;23.384;2023-02-18T01:34:52;96151.66;;;1.76;nan
4617;BME280;2321;42.704;23.384;2023-02-18T01:37:19;96151.78;;;1.74;nan
4617;BME280;2321;42.704;23.384;2023-02-18T01:39:46;96154.28;;;1.76;nan
4617;BME280;2321;42.704;23.384;2023-02-18T01:42:18;96163.38;;;1.71;nan
4617;BME280;2321;42.704;23.384;2023-02-18T01:44:47;96162.16;;;1.64;nan
4617;BME280;2321;42.704;23.384;2023-02-18T01:47:15;96175.13;;;1.54;nan
4617;BME280;2321;42.704;23.384;2023-02-18T01:49:43;96161.31;;;1.52;nan
4617;BME280;2321;42.704;23.384;2023-02-18T01:52:15;96177.28;;;1.49;nan
4617;BME280;2321;42.704;23.384;2023-02-18T01:54:45;96169.19;;;1.52;nan
4617;BME280;2321;42.704;23.384;2023-02-18T01:57:16;96173.78;;;1.37;nan
4617;BME280;2321;42.704;23.384;2023-02-18T01:59:51;96173.34;;;1.43;nan
4617;BME280;2321;42.704;23.384;2023-02-18T02:02:20;96169.72;;;1.33;nan
4617;BME280;2321;42.704;23.384;2023-02-18T02:04:48;96165.78;;;1.27;nan
4617;BME280;2321;42.704;23.384;2023-02-18T02:07:17;96154.44;;;1.26;nan
4617;BME280;2321;42.704;23.384;2023-02-18T02:09:45;96136.97;;;1.14;nan
4617;BME280;2321;42.704;23.384;2023-02-18T02:12:35;96149.06;;;1.16;nan
4617;BME280;2321;42.704;23.384;2023-02-18T02:15:22;96152.16;;;1.22;nan
4617;BME280;2321;42.704;23.384;2023-02-18T02:18:09;96149.47;;;1.35;nan
4617;BME280;2321;42.704;23.384;2023-02-18T02:21:20;96158.69;;;1.52;nan
4617;BME280;2321;42.704;23.384;2023-02-18T02:24:17;96173.13;;;1.58;nan
4617;BME280;2321;42.704;23.384;2023-02-18T02:27:14;96167.59;;;1.38;nan
4617;BME280;2321;42.704;23.384;2023-02-18T02:30:04;96158.53;;;1.42;nan
4617;BME280;2321;42.704;23.384;2023-02-18T02:35:48;96148.06;;;1.54;nan
4617;BME280;2321;42.704;23.384;2023-02-18T02:38:24;96148.06;;;1.54;nan
4617;BME280;2321;42.704;23.384;2023-02-18T02:41:04;96140.91;;;1.56;nan
4617;BME280;2321;42.704;23.384;2023-02-18T02:43:43;96146.03;;;1.57;nan
4617;BME280;2321;42.704;23.384;2023-02-18T02:46:18;96137.91;;;1.49;nan
4617;BME280;2321;42.704;23.384;2023-02-18T02:48:51;96148.78;;;1.56;nan
4617;BME280;2321;42.704;23.384;2023-02-18T02:51:27;96150.34;;;1.58;nan
4617;BME280;2321;42.704;23.384;2023-02-18T02:54:08;96162.38;;;1.49;nan
4617;BME280;2321;42.704;23.384;2023-02-18T02:56:35;96163.69;;;1.44;nan
4617;BME280;2321;42.704;23.384;2023-02-18T02:59:06;96158.16;;;1.35;nan
4617;BME280;2321;42.704;23.384;2023-02-18T03:01:41;96175.09;;;1.31;nan
4617;BME280;2321;42.704;23.384;2023-02-18T03:04:25;96168.63;;;1.24;nan
4617;BME280;2321;42.704;23.384;2023-02-18T03:07:13;96165.59;;;1.17;nan
4617;BME280;2321;42.704;23.384;2023-02-18T03:09:54;96158.72;;;1.16;nan
4617;BME280;2321;42.704;23.384;2023-02-18T03:12:33;96160.13;;;1.20;nan
4617;BME280;2321;42.704;23.384;2023-02-18T03:15:06;96161.34;;;1.16;nan
4617;BME280;2321;42.704;23.384;2023-02-18T03:17:37;96154.56;;;1.25;nan
4617;BME280;2321;42.704;23.384;2023-02-18T03:20:12;96165.91;;;1.25;nan
4617;BME280;2321;42.704;23.384;2023-02-18T03:22:45;96178.28;;;1.23;nan
4617;BME280;2321;42.704;23.384;2023-02-18T03:25:13;96185.44;;;1.21;nan
4617;BME280;2321;42.704;23.384;2023-02-18T03:27:43;96184.09;;;1.15;nan
4617;BME280;2321;42.704;23.384;2023-02-18T03:30:15;96186.59;;;1.17;nan
4617;BME280;2321;42.704;23.384;2023-02-18T03:32:44;96205.97;;;1.27;nan
4617;BME280;2321;42.704;23.384;2023-02-18T03:35:15;96191.84;;;1.17;nan
4617;BME280;2321;42.704;23.384;2023-02-18T03:37:47;96187.50;;;1.04;nan
4617;BME280;2321;42.704;23.384;2023-02-18T03:40:14;96205.03;;;1.04;nan
4617;BME280;2321;42.704;23.384;2023-02-18T03:42:43;96193.72;;;1.03;nan
4617;BME280;2321;42.704;23.384;2023-02-18T03:45:10;96199.06;;;1.02;nan
4617;BME280;2321;42.704;23.384;2023-02-18T03:47:36;96215.75;;;1.01;nan
4617;BME280;2321;42.704;23.384;2023-02-18T03:50:04;96205.50;;;0.97;nan
4617;BME280;2321;42.704;23.384;2023-02-18T03:52:31;96204.38;;;0.89;nan
4617;BME280;2321;42.704;23.384;2023-02-18T03:55:02;96208.38;;;0.81;nan
4617;BME280;2321;42.704;23.384;2023-02-18T03:57:29;96201.91;;;0.74;nan
4617;BME280;2321;42.704;23.384;2023-02-18T03:59:56;96197.50;;;0.74;nan
4617;BME280;2321;42.704;23.384;2023-02-18T04:02:23;96203.34;;;0.78;nan
4617;BME280;2321;42.704;23.384;2023-02-18T04:04:50;96208.59;;;0.78;nan
4617;BME280;2321;42.704;23.384;2023-02-18T04:07:17;96205.78;;;0.68;nan
4617;BME280;2321;42.704;23.384;2023-02-18T04:09:44;96207.34;;;0.71;nan
4617;BME280;2321;42.704;23.384;2023-02-18T04:12:12;96199.41;;;0.72;nan
4617;BME280;2321;42.704;23.384;2023-02-18T04:14:39;96207.25;;;0.72;nan
4617;BME280;2321;42.704;23.384;2023-02-18T04:17:06;96191.75;;;0.69;nan
4617;BME280;2321;42.704;23.384;2023-02-18T04:19:33;96189.22;;;0.68;nan
4617;BME280;2321;42.704;23.384;2023-02-18T04:22:00;96188.00;;;0.60;nan
4617;BME280;2321;42.704;23.384;2023-02-18T04:24:28;96178.97;;;0.64;nan
4617;BME280;2321;42.704;23.384;2023-02-18T04:26:55;96172.38;;;0.59;nan
4617;BME280;2321;42.704;23.384;2023-02-18T04:29:23;96171.84;;;0.67;nan
4617;BME280;2321;42.704;23.384;2023-02-18T04:31:50;96174.97;;;0.72;nan
4617;BME280;2321;42.704;23.384;2023-02-18T04:34:17;96177.38;;;0.75;nan
4617;BME280;2321;42.704;23.384;2023-02-18T04:36:44;96182.66;;;0.86;nan
4617;BME280;2321;42.704;23.384;2023-02-18T04:39:11;96174.44;;;0.80;nan
4617;BME280;2321;42.704;23.384;2023-02-18T04:41:37;96185.28;;;0.86;nan
4617;BME280;2321;42.704;23.384;2023-02-18T04:44:05;96184.59;;;0.96;nan
4617;BME280;2321;42.704;23.384;2023-02-18T04:46:33;96181.28;;;0.94;nan
4617;BME280;2321;42.704;23.384;2023-02-18T04:49:00;96177.53;;;0.85;nan
4617;BME280;2321;42.704;23.384;2023-02-18T04:51:27;96177.25;;;1.01;nan
4617;BME280;2321;42.704;23.384;2023-02-18T04:53:54;96192.53;;;1.07;nan
4617;BME280;2321;42.704;23.384;2023-02-18T04:56:20;96188.78;;;0.98;nan
4617;BME280;2321;42.704;23.384;2023-02-18T04:58:47;96193.00;;;1.01;nan
4617;BME280;2321;42.704;23.384;2023-02-18T05:01:15;96194.59;;;0.91;nan
4617;BME280;2321;42.704;23.384;2023-02-18T05:03:43;96202.53;;;1.02;nan
4617;BME280;2321;42.704;23.384;2023-02-18T05:06:11;96193.50;;;1.06;nan
4617;BME280;2321;42.704;23.384;2023-02-18T05:08:38;96186.81;;;1.14;nan
4617;BME280;2321;42.704;23.384;2023-02-18T05:11:06;96190.41;;;1.13;nan
4617;BME280;2321;42.704;23.384;2023-02-18T05:13:33;96190.28;;;1.14;nan
4617;BME280;2321;42.704;23.384;2023-02-18T05:16:00;96193.75;;;1.15;nan
4617;BME280;2321;42.704;23.384;2023-02-18T05:18:27;96179.19;;;1.11;nan
4617;BME280;2321;42.704;23.384;2023-02-18T05:20:55;96172.34;;;0.96;nan
4617;BME280;2321;42.704;23.384;2023-02-18T05:23:22;96166.66;;;1.03;nan
4617;BME280;2321;42.704;23.384;2023-02-18T05:25:50;96181.81;;;1.11;nan
4617;BME280;2321;42.704;23.384;2023-02-18T05:28:17;96168.66;;;0.99;nan
4617;BME280;2321;42.704;23.384;2023-02-18T05:30:44;96188.25;;;1.06;nan
4617;BME280;2321;42.704;23.384;2023-02-18T05:33:11;96197.75;;;1.07;nan
4617;BME280;2321;42.704;23.384;2023-02-18T05:35:38;96196.38;;;1.15;nan
4617;BME280;2321;42.704;23.384;2023-02-18T05:38:06;96185.16;;;1.13;nan
4617;BME280;2321;42.704;23.384;2023-02-18T05:40:34;96185.00;;;1.03;nan
4617;BME280;2321;42.704;23.384;2023-02-18T05:43:01;96190.53;;;0.86;nan
4617;BME280;2321;42.704;23.384;2023-02-18T05:45:28;96194.31;;;1.07;nan
4617;BME280;2321;42.704;23.384;2023-02-18T05:47:55;96185.16;;;1.13;nan
4617;BME280;2321;42.704;23.384;2023-02-18T05:50:22;96193.06;;;1.24;nan
4617;BME280;2321;42.704;23.384;2023-02-18T05:52:48;96186.06;;;1.36;nan
4617;BME280;2321;42.704;23.384;2023-02-18T05:55:17;96208.41;;;1.54;nan
4617;BME280;2321;42.704;23.384;2023-02-18T05:57:44;96203.69;;;1.59;nan
4617;BME280;2321;42.704;23.384;2023-02-18T06:00:12;96192.91;;;1.50;nan
4617;BME280;2321;42.704;23.384;2023-02-18T06:02:39;96200.44;;;1.55;nan
4617;BME280;2321;42.704;23.384;2023-02-18T06:05:06;96201.31;;;1.67;nan
4617;BME280;2321;42.704;23.384;2023-02-18T06:07:33;96215.28;;;1.79;nan
4617;BME280;2321;42.704;23.384;2023-02-18T06:10:00;96217.31;;;1.87;nan
4617;BME280;2321;42.704;23.384;2023-02-18T06:12:28;96217.81;;;1.92;nan
4617;BME280;2321;42.704;23.384;2023-02-18T06:14:55;96203.47;;;1.96;nan
4617;BME280;2321;42.704;23.384;2023-02-18T06:17:22;96194.28;;;1.91;nan
4617;BME280;2321;42.704;23.384;2023-02-18T06:19:49;96196.81;;;1.92;nan
4617;BME280;2321;42.704;23.384;2023-02-18T06:22:16;96199.31;;;1.94;nan
4617;BME280;2321;42.704;23.384;2023-02-18T06:24:43;96193.59;;;2.00;nan
4617;BME280;2321;42.704;23.384;2023-02-18T06:27:10;96187.72;;;1.96;nan
4617;BME280;2321;42.704;23.384;2023-02-18T06:29:38;96187.00;;;2.06;nan
4617;BME280;2321;42.704;23.384;2023-02-18T06:32:05;96202.66;;;2.19;nan
4617;BME280;2321;42.704;23.384;2023-02-18T06:34:32;96191.69;;;2.14;nan
4617;BME280;2321;42.704;23.384;2023-02-18T06:36:59;96186.78;;;2.09;nan
4617;BME280;2321;42.704;23.384;2023-02-18T06:39:26;96186.66;;;2.11;nan
4617;BME280;2321;42.704;23.384;2023-02-18T06:41:53;96184.88;;;2.11;nan
4617;BME280;2321;42.704;23.384;2023-02-18T06:44:20;96181.53;;;2.21;nan
4617;BME280;2321;42.704;23.384;2023-02-18T06:46:48;96192.66;;;2.36;nan
4617;BME280;2321;42.704;23.384;2023-02-18T06:49:15;96203.03;;;2.37;nan
4617;BME280;2321;42.704;23.384;2023-02-18T06:51:42;96186.75;;;2.55;nan
4617;BME280;2321;42.704;23.384;2023-02-18T06:54:09;96190.44;;;2.64;nan
4617;BME280;2321;42.704;23.384;2023-02-18T06:56:36;96186.47;;;2.70;nan
4617;BME280;2321;42.704;23.384;2023-02-18T06:59:02;96191.97;;;2.78;nan
4617;BME280;2321;42.704;23.384;2023-02-18T07:01:29;96192.19;;;2.87;nan
4617;BME280;2321;42.704;23.384;2023-02-18T07:03:58;96187.63;;;3.00;nan
4617;BME280;2321;42.704;23.384;2023-02-18T07:06:25;96186.13;;;3.08;nan
4617;BME280;2321;42.704;23.384;2023-02-18T07:08:52;96186.88;;;3.31;nan
4617;BME280;2321;42.704;23.384;2023-02-18T07:11:19;96183.47;;;3.41;nan
4617;BME280;2321;42.704;23.384;2023-02-18T07:13:46;96184.25;;;3.53;nan
4617;BME280;2321;42.704;23.384;2023-02-18T07:16:12;96181.31;;;3.67;nan
4617;BME280;2321;42.704;23.384;2023-02-18T07:18:39;96186.94;;;3.84;nan
4617;BME280;2321;42.704;23.384;2023-02-18T07:21:08;96181.31;;;3.99;nan
4617;BME280;2321;42.704;23.384;2023-02-18T07:23:34;96178.75;;;4.09;nan
4617;BME280;2321;42.704;23.384;2023-02-18T07:26:03;96174.63;;;4.16;nan
4617;BME280;2321;42.704;23.384;2023-02-18T07:28:30;96176.63;;;4.34;nan
4617;BME280;2321;42.704;23.384;2023-02-18T07:30:57;96172.66;;;4.50;nan
4617;BME280;2321;42.704;23.384;2023-02-18T07:33:24;96188.94;;;4.65;nan
4617;BME280;2321;42.704;23.384;2023-02-18T07:35:55;96190.50;;;4.77;nan
4617;BME280;2321;42.704;23.384;2023-02-18T07:38:24;96190.25;;;4.90;nan
4617;BME280;2321;42.704;23.384;2023-02-18T07:40:52;96183.44;;;4.98;nan
4617;BME280;2321;42.704;23.384;2023-02-18T07:43:19;96180.66;;;5.09;nan
4617;BME280;2321;42.704;23.384;2023-02-18T07:45:46;96188.75;;;5.18;nan
4617;BME280;2321;42.704;23.384;2023-02-18T07:48:14;96178.44;;;5.34;nan
4617;BME280;2321;42.704;23.384;2023-02-18T07:50:44;96185.13;;;5.49;nan
4617;BME280;2321;42.704;23.384;2023-02-18T07:53:12;96184.53;;;5.65;nan
4617;BME280;2321;42.704;23.384;2023-02-18T07:55:41;96187.44;;;5.82;nan
4617;BME280;2321;42.704;23.384;2023-02-18T07:58:17;96187.72;;;5.88;nan
4617;BME280;2321;42.704;23.384;2023-02-18T08:00:46;96190.88;;;5.92;nan
4617;BME280;2321;42.704;23.384;2023-02-18T08:03:14;96164.19;;;5.85;nan
4617;BME280;2321;42.704;23.384;2023-02-18T08:05:41;96196.44;;;6.09;nan
4617;BME280;2321;42.704;23.384;2023-02-18T08:08:12;96192.47;;;6.23;nan
4617;BME280;2321;42.704;23.384;2023-02-18T08:10:41;96179.88;;;6.45;nan
4617;BME280;2321;42.704;23.384;2023-02-18T08:13:09;96191.59;;;6.71;nan
4617;BME280;2321;42.704;23.384;2023-02-18T08:15:36;96184.06;;;6.94;nan
4617;BME280;2321;42.704;23.384;2023-02-18T08:18:04;96166.50;;;7.12;nan
4617;BME280;2321;42.704;23.384;2023-02-18T08:20:34;96172.25;;;7.25;nan
4617;BME280;2321;42.704;23.384;2023-02-18T08:23:02;96184.53;;;7.45;nan
4617;BME280;2321;42.704;23.384;2023-02-18T08:25:29;96173.69;;;7.56;nan
4617;BME280;2321;42.704;23.384;2023-02-18T08:27:58;96175.00;;;7.79;nan
4617;BME280;2321;42.704;23.384;2023-02-18T08:30:25;96184.34;;;7.91;nan
4617;BME280;2321;42.704;23.384;2023-02-18T08:32:53;96179.31;;;8.06;nan
4617;BME280;2321;42.704;23.384;2023-02-18T08:35:20;96175.22;;;8.12;nan
4617;BME280;2321;42.704;23.384;2023-02-18T08:37:47;96163.44;;;8.15;nan
4617;BME280;2321;42.704;23.384;2023-02-18T08:40:14;96165.31;;;8.23;nan
4617;BME280;2321;42.704;23.384;2023-02-18T08:42:41;96180.47;;;8.39;nan
4617;BME280;2321;42.704;23.384;2023-02-18T08:45:09;96167.75;;;8.51;nan
4617;BME280;2321;42.704;23.384;2023-02-18T08:47:36;96176.59;;;8.60;nan
4617;BME280;2321;42.704;23.384;2023-02-18T08:50:04;96173.97;;;8.68;nan
4617;BME280;2321;42.704;23.384;2023-02-18T08:52:31;96169.38;;;8.79;nan
4617;BME280;2321;42.704;23.384;2023-02-18T08:54:58;96165.09;;;8.86;nan
4617;BME280;2321;42.704;23.384;2023-02-18T08:57:26;96161.75;;;8.92;nan
4617;BME280;2321;42.704;23.384;2023-02-18T08:59:53;96169.91;;;8.99;nan
4617;BME280;2321;42.704;23.384;2023-02-18T09:02:21;96171.59;;;9.09;nan
4617;BME280;2321;42.704;23.384;2023-02-18T09:04:49;96166.47;;;9.15;nan
4617;BME280;2321;42.704;23.384;2023-02-18T09:07:16;96168.28;;;9.23;nan
4617;BME280;2321;42.704;23.384;2023-02-18T09:09:43;96167.94;;;9.26;nan
4617;BME280;2321;42.704;23.384;2023-02-18T09:12:10;96157.81;;;9.39;nan
4617;BME280;2321;42.704;23.384;2023-02-18T09:14:37;96164.81;;;9.48;nan
4617;BME280;2321;42.704;23.384;2023-02-18T09:17:04;96165.97;;;9.54;nan
4617;BME280;2321;42.704;23.384;2023-02-18T09:19:32;96165.47;;;9.67;nan
4617;BME280;2321;42.704;23.384;2023-02-18T09:21:59;96163.84;;;9.66;nan
4617;BME280;2321;42.704;23.384;2023-02-18T09:24:27;96161.50;;;9.71;nan
4617;BME280;2321;42.704;23.384;2023-02-18T09:26:54;96161.50;;;9.71;nan
4617;BME280;2321;42.704;23.384;2023-02-18T09:29:21;96158.81;;;9.79;nan
4617;BME280;2321;42.704;23.384;2023-02-18T09:31:47;96152.97;;;9.93;nan
4617;BME280;2321;42.704;23.384;2023-02-18T09:34:14;96156.47;;;10.01;nan
4617;BME280;2321;42.704;23.384;2023-02-18T09:36:44;96141.28;;;10.19;nan
4617;BME280;2321;42.704;23.384;2023-02-18T09:39:11;96145.53;;;10.37;nan
4617;BME280;2321;42.704;23.384;2023-02-18T09:41:43;96141.47;;;10.49;nan
4617;BME280;2321;42.704;23.384;2023-02-18T09:44:14;96141.81;;;10.63;nan
4617;BME280;2321;42.704;23.384;2023-02-18T09:46:46;96147.50;;;10.83;nan
4617;BME280;2321;42.704;23.384;2023-02-18T09:49:16;96148.25;;;11.00;nan
4617;BME280;2321;42.704;23.384;2023-02-18T09:51:45;96149.03;;;11.09;nan
4617;BME280;2321;42.704;23.384;2023-02-18T09:54:16;96149.13;;;11.16;nan
4617;BME280;2321;42.704;23.384;2023-02-18T09:56:44;96135.94;;;11.23;nan
4617;BME280;2321;42.704;23.384;2023-02-18T09:59:14;96129.53;;;11.32;nan
4617;BME280;2321;42.704;23.384;2023-02-18T10:01:42;96127.00;;;11.39;nan
4617;BME280;2321;42.704;23.384;2023-02-18T10:04:12;96126.91;;;11.48;nan
4617;BME280;2321;42.704;23.384;2023-02-18T10:06:42;96116.84;;;11.58;nan
4617;BME280;2321;42.704;23.384;2023-02-18T10:09:17;96115.19;;;11.72;nan
4617;BME280;2321;42.704;23.384;2023-02-18T10:11:48;96109.88;;;11.87;nan
4617;BME280;2321;42.704;23.384;2023-02-18T10:14:16;96119.38;;;12.05;nan
4617;BME280;2321;42.704;23.384;2023-02-18T10:16:44;96116.91;;;12.19;nan
4617;BME280;2321;42.704;23.384;2023-02-18T10:19:20;96103.00;;;12.24;nan
4617;BME280;2321;42.704;23.384;2023-02-18T10:21:48;96107.41;;;12.47;nan
4617;BME280;2321;42.704;23.384;2023-02-18T10:24:27;96103.34;;;12.88;nan
4617;BME280;2321;42.704;23.384;2023-02-18T10:26:55;96100.63;;;13.25;nan
4617;BME280;2321;42.704;23.384;2023-02-18T10:29:23;96096.97;;;13.55;nan
4617;BME280;2321;42.704;23.384;2023-02-18T10:31:54;96093.59;;;13.68;nan
4617;BME280;2321;42.704;23.384;2023-02-18T10:34:29;96090.25;;;13.88;nan
4617;BME280;2321;42.704;23.384;2023-02-18T10:37:14;96082.09;;;14.03;nan
4617;BME280;2321;42.704;23.384;2023-02-18T10:39:55;96074.19;;;14.31;nan
4617;BME280;2321;42.704;23.384;2023-02-18T10:42:32;96058.41;;;14.49;nan
4617;BME280;2321;42.704;23.384;2023-02-18T10:45:11;96052.25;;;14.69;nan
4617;BME280;2321;42.704;23.384;2023-02-18T10:47:46;96049.28;;;14.93;nan
4617;BME280;2321;42.704;23.384;2023-02-18T10:50:24;96051.75;;;15.01;nan
4617;BME280;2321;42.704;23.384;2023-02-18T10:52:55;96059.38;;;15.05;nan
4617;BME280;2321;42.704;23.384;2023-02-18T10:55:35;96051.16;;;15.20;nan
4617;BME280;2321;42.704;23.384;2023-02-18T10:58:02;96042.66;;;15.36;nan
4617;BME280;2321;42.704;23.384;2023-02-18T11:00:34;96037.53;;;15.42;nan
4617;BME280;2321;42.704;23.384;2023-02-18T11:03:12;96037.72;;;15.33;nan
4617;BME280;2321;42.704;23.384;2023-02-18T11:05:40;96040.00;;;15.30;nan
4617;BME280;2321;42.704;23.384;2023-02-18T11:08:09;96036.09;;;15.25;nan
4617;BME280;2321;42.704;23.384;2023-02-18T11:10:41;96033.59;;;15.38;nan
4617;BME280;2321;42.704;23.384;2023-02-18T11:13:11;96037.13;;;15.38;nan
4617;BME280;2321;42.704;23.384;2023-02-18T11:15:53;96027.00;;;15.33;nan
4617;BME280;2321;42.704;23.384;2023-02-18T11:18:29;96012.78;;;15.33;nan
4617;BME280;2321;42.704;23.384;2023-02-18T11:20:59;96005.31;;;15.28;nan
4617;BME280;2321;42.704;23.384;2023-02-18T11:23:26;96006.16;;;15.29;nan
4617;BME280;2321;42.704;23.384;2023-02-18T11:26:00;96006.56;;;15.19;nan
4617;BME280;2321;42.704;23.384;2023-02-18T11:28:42;95993.56;;;15.09;nan
4617;BME280;2321;42.704;23.384;2023-02-18T11:31:15;95990.88;;;15.09;nan
4617;BME280;2321;42.704;23.384;2023-02-18T11:33:47;95984.72;;;15.08;nan
4617;BME280;2321;42.704;23.384;2023-02-18T11:36:21;95982.22;;;15.07;nan
4617;BME280;2321;42.704;23.384;2023-02-18T11:38:52;95983.06;;;15.14;nan
4617;BME280;2321;42.704;23.384;2023-02-18T11:41:29;95975.63;;;15.16;nan
4617;BME280;2321;42.704;23.384;2023-02-18T11:43:58;95969.44;;;15.09;nan
4617;BME280;2321;42.704;23.384;2023-02-18T11:46:26;95972.94;;;15.09;nan
4617;BME280;2321;42.704;23.384;2023-02-18T11:48:54;95976.88;;;15.20;nan
4617;BME280;2321;42.704;23.384;2023-02-18T11:51:24;95973.34;;;15.27;nan
4617;BME280;2321;42.704;23.384;2023-02-18T11:53:57;95978.72;;;15.27;nan
4617;BME280;2321;42.704;23.384;2023-02-18T11:56:28;95973.56;;;15.32;nan
4617;BME280;2321;42.704;23.384;2023-02-18T11:58:56;95961.59;;;15.28;nan
4617;BME280;2321;42.704;23.384;2023-02-18T12:01:36;95956.63;;;15.24;nan
4617;BME280;2321;42.704;23.384;2023-02-18T12:04:09;95953.94;;;15.31;nan
4617;BME280;2321;42.704;23.384;2023-02-18T12:06:42;95943.81;;;15.40;nan
4617;BME280;2321;42.704;23.384;2023-02-18T12:09:19;95948.94;;;15.49;nan
4617;BME280;2321;42.704;23.384;2023-02-18T12:11:52;95889.19;;;15.21;nan
4617;BME280;2321;42.704;23.384;2023-02-18T12:14:21;95942.31;;;15.65;nan
4617;BME280;2321;42.704;23.384;2023-02-18T12:17:11;95936.25;;;15.83;nan
4617;BME280;2321;42.704;23.384;2023-02-18T12:19:56;95933.72;;;15.95;nan
4617;BME280;2321;42.704;23.384;2023-02-18T12:22:33;95925.84;;;16.07;nan
4617;BME280;2321;42.704;23.384;2023-02-18T12:25:21;95916.19;;;15.93;nan
4617;BME280;2321;42.704;23.384;2023-02-18T12:27:58;95904.47;;;15.80;nan
4617;BME280;2321;42.704;23.384;2023-02-18T12:30:52;95909.84;;;15.80;nan
4617;BME280;2321;42.704;23.384;2023-02-18T12:33:30;95901.00;;;15.73;nan
4617;BME280;2321;42.704;23.384;2023-02-18T12:36:08;95905.13;;;15.75;nan
4617;BME280;2321;42.704;23.384;2023-02-18T12:38:59;95890.03;;;15.81;nan
4617;BME280;2321;42.704;23.384;2023-02-18T12:41:54;95892.69;;;15.88;nan
4617;BME280;2321;42.704;23.384;2023-02-18T12:44:33;95893.84;;;15.99;nan
4617;BME280;2321;42.704;23.384;2023-02-18T12:47:25;95888.88;;;16.09;nan
4617;BME280;2321;42.704;23.384;2023-02-18T12:50:24;95887.16;;;16.22;nan
4617;BME280;2321;42.704;23.384;2023-02-18T12:53:12;95879.03;;;16.29;nan
4617;BME280;2321;42.704;23.384;2023-02-18T12:55:55;95875.72;;;16.33;nan
4617;BME280;2321;42.704;23.384;2023-02-18T12:58:34;95872.31;;;16.45;nan
4617;BME280;2321;42.704;23.384;2023-02-18T13:01:15;95876.38;;;16.54;nan
4617;BME280;2321;42.704;23.384;2023-02-18T13:04:06;95877.63;;;16.59;nan
4617;BME280;2321;42.704;23.384;2023-02-18T13:07:22;95883.75;;;16.66;nan
4617;BME280;2321;42.704;23.384;2023-02-18T13:12:48;95872.56;;;16.69;nan
4617;BME280;2321;42.704;23.384;2023-02-18T13:15:22;95870.84;;;16.75;nan
4617;BME280;2321;42.704;23.384;2023-02-18T13:17:56;95876.31;;;16.68;nan
4617;BME280;2321;42.704;23.384;2023-02-18T13:20:31;95868.44;;;16.66;nan
4617;BME280;2321;42.704;23.384;2023-02-18T13:23:01;95867.44;;;16.61;nan
4617;BME280;2321;42.704;23.384;2023-02-18T13:25:31;95867.66;;;16.59;nan
4617;BME280;2321;42.704;23.384;2023-02-18T13:28:09;95871.41;;;16.58;nan
4617;BME280;2321;42.704;23.384;2023-02-18T13:30:42;95867.28;;;16.55;nan
4617;BME280;2321;42.704;23.384;2023-02-18T13:33:17;95878.91;;;16.49;nan
4617;BME280;2321;42.704;23.384;2023-02-18T13:35:49;95878.09;;;16.49;nan
4617;BME280;2321;42.704;23.384;2023-02-18T13:38:30;95876.44;;;16.48;nan
4617;BME280;2321;42.704;23.384;2023-02-18T13:40:58;95876.47;;;16.41;nan
4617;BME280;2321;42.704;23.384;2023-02-18T13:43:30;95878.41;;;16.33;nan
4617;BME280;2321;42.704;23.384;2023-02-18T13:46:08;95868.72;;;16.26;nan
4617;BME280;2321;42.704;23.384;2023-02-18T13:48:41;95871.25;;;16.20;nan
4617;BME280;2321;42.704;23.384;2023-02-18T13:51:11;95875.41;;;16.16;nan
4617;BME280;2321;42.704;23.384;2023-02-18T13:53:41;95868.00;;;16.11;nan
4617;BME280;2321;42.704;23.384;2023-02-18T13:56:10;95862.44;;;16.06;nan
4617;BME280;2321;42.704;23.384;2023-02-18T13:58:48;95862.03;;;16.03;nan
4617;BME280;2321;42.704;23.384;2023-02-18T14:01:24;95867.84;;;15.99;nan
4617;BME280;2321;42.704;23.384;2023-02-18T14:04:03;95862.72;;;15.91;nan
4617;BME280;2321;42.704;23.384;2023-02-18T14:09:51;95857.63;;;15.76;nan
4617;BME280;2321;42.704;23.384;2023-02-18T14:12:38;95859.91;;;15.72;nan
4617;BME280;2321;42.704;23.384;2023-02-18T14:18:26;95865.31;;;15.65;nan